createdAt,value
2023-09-17T00:01:17.562Z,100057.47
2023-09-17T00:02:49.600Z,100060.00
2023-09-17T00:04:21.619Z,100059.69
2023-09-17T00:05:53.567Z,100067.50
2023-09-17T00:07:25.484Z,100058.91
2023-09-17T00:08:57.358Z,100062.16
2023-09-17T00:10:29.304Z,100057.09
2023-09-17T00:12:01.265Z,100051.19
2023-09-17T00:13:33.389Z,100056.84
2023-09-17T00:15:06.078Z,100058.22
2023-09-17T00:16:40.030Z,100059.44
2023-09-17T00:18:12.040Z,100062.50
2023-09-17T00:19:43.900Z,100062.88
2023-09-17T00:21:15.821Z,100060.50
2023-09-17T00:22:47.770Z,100062.75
2023-09-17T00:24:19.728Z,100055.84
2023-09-17T00:25:52.013Z,100060.06
2023-09-17T00:27:23.974Z,100060.44
2023-09-17T00:28:55.833Z,100065.69
2023-09-17T00:30:29.050Z,100067.09
2023-09-17T00:32:01.171Z,100064.09
2023-09-17T00:33:33.117Z,100068.31
2023-09-17T00:35:06.428Z,100067.34
2023-09-17T00:36:39.123Z,100067.00
2023-09-17T00:38:11.012Z,100059.69
2023-09-17T00:39:42.875Z,100061.25
2023-09-17T00:41:15.108Z,100057.66
2023-09-17T00:42:46.979Z,100057.50
2023-09-17T00:44:19.255Z,100062.75
2023-09-17T00:45:51.456Z,100057.31
2023-09-17T00:47:23.850Z,100056.31
2023-09-17T00:48:55.806Z,100059.72
2023-09-17T00:50:27.991Z,100065.84
2023-09-17T00:52:00.279Z,100051.94
2023-09-17T00:53:32.492Z,100057.19
2023-09-17T00:55:05.303Z,100046.31
2023-09-17T00:56:38.358Z,100058.72
2023-09-17T00:58:10.579Z,100056.84
2023-09-17T00:59:44.347Z,100054.13
2023-09-17T01:01:16.335Z,100055.88
2023-09-17T01:02:49.477Z,100044.13
2023-09-17T01:04:21.813Z,100051.28
2023-09-17T01:05:55.309Z,100043.97
2023-09-17T01:07:27.737Z,100045.00
2023-09-17T01:09:00.389Z,100038.53
2023-09-17T01:10:34.785Z,100038.53
2023-09-17T01:12:07.717Z,100043.13
2023-09-17T01:13:43.320Z,100044.13
2023-09-17T01:15:15.472Z,100042.28
2023-09-17T01:16:47.876Z,100044.13
2023-09-17T01:18:23.680Z,100037.00
2023-09-17T01:19:56.735Z,100036.31
2023-09-17T01:21:37.601Z,100039.88
2023-09-17T01:23:24.767Z,100034.44
2023-09-17T01:25:06.693Z,100032.56
2023-09-17T01:26:42.332Z,100030.72
2023-09-17T01:28:14.954Z,100037.16
2023-09-17T01:29:50.853Z,100045.31
2023-09-17T01:31:24.592Z,100044.47
2023-09-17T01:32:56.545Z,100043.59
2023-09-17T01:34:31.416Z,100046.50
2023-09-17T01:36:20.264Z,100042.41
2023-09-17T01:37:56.220Z,100046.66
2023-09-17T01:39:35.021Z,100039.53
2023-09-17T01:41:09.118Z,100052.25
2023-09-17T01:42:44.967Z,100052.25
2023-09-17T01:44:17.225Z,100048.84
2023-09-17T01:45:49.859Z,100053.44
2023-09-17T01:47:23.720Z,100059.91
2023-09-17T01:48:56.537Z,100052.91
2023-09-17T01:50:30.002Z,100066.34
2023-09-17T01:52:02.607Z,100053.94
2023-09-17T01:53:35.084Z,100059.53
2023-09-17T01:55:09.906Z,100064.09
2023-09-17T01:56:43.328Z,100054.41
2023-09-17T01:58:17.532Z,100056.47
2023-09-17T01:59:49.510Z,100061.06
2023-09-17T02:01:21.513Z,100061.19
2023-09-17T02:02:54.121Z,100059.63
2023-09-17T02:04:26.171Z,100050.81
2023-09-17T02:05:58.587Z,100063.69
2023-09-17T02:07:30.456Z,100059.59
2023-09-17T02:09:02.359Z,100056.38
2023-09-17T02:10:34.385Z,100063.09
2023-09-17T02:12:06.380Z,100047.31
2023-09-17T02:13:38.303Z,100051.38
2023-09-17T02:15:13.154Z,100049.13
2023-09-17T02:16:45.142Z,100061.34
2023-09-17T02:18:17.084Z,100058.28
2023-09-17T02:19:49.101Z,100051.75
2023-09-17T02:21:21.573Z,100053.28
2023-09-17T02:22:53.477Z,100044.03
2023-09-17T02:24:25.479Z,100048.28
2023-09-17T02:25:57.717Z,100039.03
2023-09-17T02:27:29.598Z,100051.53
2023-09-17T02:29:01.714Z,100043.19
2023-09-17T02:30:33.605Z,100041.25
2023-09-17T02:32:05.742Z,100036.44
2023-09-17T02:33:37.726Z,100046.22
2023-09-17T02:35:09.883Z,100044.13
2023-09-17T02:36:42.517Z,100046.63
2023-09-17T02:38:14.406Z,100047.38
2023-09-17T02:39:46.307Z,100052.44
2023-09-17T02:41:18.591Z,100055.06
2023-09-17T02:42:51.308Z,100062.81
2023-09-17T02:44:23.278Z,100052.59
2023-09-17T02:45:56.792Z,100067.59
2023-09-17T02:47:28.758Z,100060.91
2023-09-17T02:49:01.476Z,100069.69
2023-09-17T02:50:33.563Z,100068.25
2023-09-17T02:52:07.675Z,100070.59
2023-09-17T02:53:40.278Z,100075.44
2023-09-17T02:55:12.157Z,100071.28
2023-09-17T02:56:44.088Z,100075.31
2023-09-17T02:58:16.488Z,100080.19
2023-09-17T02:59:50.307Z,100074.06
2023-09-17T03:01:24.647Z,100071.66
2023-09-17T03:02:56.918Z,100075.66
2023-09-17T03:04:29.505Z,100076.81
2023-09-17T03:06:03.800Z,100078.00
2023-09-17T03:07:35.882Z,100074.72
2023-09-17T03:09:11.744Z,100068.72
2023-09-17T03:10:44.054Z,100071.91
2023-09-17T03:12:16.732Z,100074.06
2023-09-17T03:13:49.509Z,100074.34
2023-09-17T03:15:22.030Z,100072.94
2023-09-17T03:16:54.279Z,100077.09
2023-09-17T03:18:26.672Z,100075.53
2023-09-17T03:19:58.937Z,100078.53
2023-09-17T03:21:32.127Z,100070.69
2023-09-17T03:23:05.780Z,100077.41
2023-09-17T03:24:47.613Z,100080.41
2023-09-17T03:26:30.193Z,100088.69
2023-09-17T03:28:02.077Z,100080.03
2023-09-17T03:29:34.558Z,100080.16
2023-09-17T03:31:06.838Z,100085.00
2023-09-17T03:32:46.308Z,100082.75
2023-09-17T03:34:26.035Z,100086.31
2023-09-17T03:36:00.199Z,100074.03
2023-09-17T03:37:32.134Z,100082.44
2023-09-17T03:39:07.231Z,100071.91
2023-09-17T03:40:41.221Z,100083.72
2023-09-17T03:42:13.748Z,100080.31
2023-09-17T03:43:46.816Z,100078.47
2023-09-17T03:45:19.249Z,100078.03
2023-09-17T03:46:52.252Z,100072.63
2023-09-17T03:48:24.320Z,100073.63
2023-09-17T03:49:56.210Z,100074.75
2023-09-17T03:51:30.218Z,100066.81
2023-09-17T03:53:06.510Z,100078.47
2023-09-17T03:54:39.396Z,100080.31
2023-09-17T03:56:13.401Z,100081.19
2023-09-17T03:57:46.106Z,100071.03
2023-09-17T03:59:18.882Z,100077.19
2023-09-17T04:00:50.889Z,100071.63
2023-09-17T04:02:23.039Z,100077.59
2023-09-17T04:03:55.183Z,100076.44
2023-09-17T04:05:27.330Z,100078.75
2023-09-17T04:07:00.125Z,100077.34
2023-09-17T04:08:32.052Z,100081.28
2023-09-17T04:10:07.415Z,100081.72
2023-09-17T04:11:39.332Z,100084.81
2023-09-17T04:13:11.194Z,100085.09
2023-09-17T04:14:43.100Z,100082.63
2023-09-17T04:16:15.090Z,100090.34
2023-09-17T04:17:51.114Z,100088.91
2023-09-17T04:19:23.296Z,100085.72
2023-09-17T04:20:55.334Z,100086.28
2023-09-17T04:22:27.252Z,100089.41
2023-09-17T04:23:59.636Z,100084.56
2023-09-17T04:25:33.584Z,100092.22
2023-09-17T04:27:06.116Z,100092.75
2023-09-17T04:28:38.301Z,100087.91
2023-09-17T04:30:15.144Z,100092.16
2023-09-17T04:31:48.444Z,100090.72
2023-09-17T04:33:22.198Z,100090.41
2023-09-17T04:34:54.309Z,100087.41
2023-09-17T04:36:26.349Z,100094.22
2023-09-17T04:37:58.371Z,100092.09
2023-09-17T04:39:35.037Z,100094.50
2023-09-17T04:41:07.213Z,100092.34
2023-09-17T04:42:41.981Z,100095.47
2023-09-17T04:44:15.254Z,100090.59
2023-09-17T04:45:47.368Z,100091.13
2023-09-17T04:47:41.340Z,100095.25
2023-09-17T04:49:13.421Z,100102.09
2023-09-17T04:50:48.116Z,100101.91
2023-09-17T04:52:21.178Z,100102.47
2023-09-17T04:53:53.219Z,100094.19
2023-09-17T04:55:26.449Z,100103.84
2023-09-17T04:56:58.607Z,100106.25
2023-09-17T04:58:30.536Z,100099.69
2023-09-17T05:00:12.446Z,100106.97
2023-09-17T05:01:44.566Z,100110.38
2023-09-17T05:03:17.005Z,100117.50
2023-09-17T05:04:49.590Z,100112.78
2023-09-17T05:06:21.629Z,100119.06
2023-09-17T05:07:53.861Z,100127.88
2023-09-17T05:09:27.372Z,100124.31
2023-09-17T05:10:59.292Z,100124.31
2023-09-17T05:12:31.354Z,100129.72
2023-09-17T05:14:03.684Z,100128.72
2023-09-17T05:15:38.130Z,100135.88
2023-09-17T05:17:10.258Z,100140.28
2023-09-17T05:18:43.246Z,100139.44
2023-09-17T05:20:15.350Z,100148.41
2023-09-17T05:21:47.213Z,100143.16
2023-09-17T05:23:19.266Z,100146.00
2023-09-17T05:24:53.562Z,100144.31
2023-09-17T05:26:25.715Z,100147.16
2023-09-17T05:27:59.307Z,100145.75
2023-09-17T05:29:31.741Z,100147.75
2023-09-17T05:31:04.776Z,100148.94
2023-09-17T05:32:37.448Z,100150.41
2023-09-17T05:34:09.661Z,100154.97
2023-09-17T05:35:41.699Z,100146.97
2023-09-17T05:37:13.736Z,100154.25
2023-09-17T05:38:45.626Z,100152.38
2023-09-17T05:40:17.897Z,100152.38
2023-09-17T05:41:49.874Z,100154.97
2023-09-17T05:43:21.897Z,100157.50
2023-09-17T05:44:54.053Z,100161.78
2023-09-17T05:46:26.617Z,100160.47
2023-09-17T05:47:58.635Z,100166.59
2023-09-17T05:49:30.707Z,100162.56
2023-09-17T05:51:03.199Z,100163.13
2023-09-17T05:52:36.432Z,100155.53
2023-09-17T05:54:08.351Z,100159.66
2023-09-17T05:55:40.369Z,100162.06
2023-09-17T05:57:12.578Z,100165.16
2023-09-17T05:58:44.599Z,100160.28
2023-09-17T06:00:18.629Z,100163.22
2023-09-17T06:01:51.496Z,100164.63
2023-09-17T06:03:23.975Z,100170.28
2023-09-17T06:04:58.397Z,100161.72
2023-09-17T06:06:33.117Z,100162.09
2023-09-17T06:08:05.222Z,100165.06
2023-09-17T06:09:37.136Z,100164.56
2023-09-17T06:11:09.248Z,100166.47
2023-09-17T06:12:41.223Z,100159.75
2023-09-17T06:14:14.236Z,100168.25
2023-09-17T06:15:46.545Z,100170.34
2023-09-17T06:17:18.737Z,100167.84
2023-09-17T06:18:50.676Z,100168.25
2023-09-17T06:20:22.767Z,100164.00
2023-09-17T06:21:55.247Z,100163.56
2023-09-17T06:23:28.667Z,100160.53
2023-09-17T06:25:01.121Z,100156.16
2023-09-17T06:26:36.865Z,100168.38
2023-09-17T06:28:09.585Z,100165.03
2023-09-17T06:29:41.713Z,100165.44
2023-09-17T06:31:16.267Z,100172.97
2023-09-17T06:32:49.028Z,100166.19
2023-09-17T06:34:21.268Z,100170.44
2023-09-17T06:35:53.192Z,100172.53
2023-09-17T06:37:25.471Z,100172.03
2023-09-17T06:38:57.924Z,100165.25
2023-09-17T06:40:30.653Z,100161.34
2023-09-17T06:42:02.630Z,100159.84
2023-09-17T06:43:34.551Z,100169.38
2023-09-17T06:45:07.090Z,100168.03
2023-09-17T06:46:39.257Z,100165.69
2023-09-17T06:48:11.363Z,100172.34
2023-09-17T06:49:43.715Z,100168.25
2023-09-17T06:51:15.940Z,100174.91
2023-09-17T06:52:47.900Z,100175.94
2023-09-17T06:54:19.757Z,100186.84
2023-09-17T06:55:52.005Z,100176.38
2023-09-17T06:57:23.960Z,100185.56
2023-09-17T06:58:56.126Z,100172.97
2023-09-17T07:00:28.047Z,100171.47
2023-09-17T07:01:59.938Z,100169.94
2023-09-17T07:03:32.328Z,100167.56
2023-09-17T07:05:05.164Z,100170.63
2023-09-17T07:06:37.134Z,100172.84
2023-09-17T07:08:09.000Z,100165.88
2023-09-17T07:09:40.978Z,100176.44
2023-09-17T07:11:12.893Z,100174.22
2023-09-17T07:12:44.900Z,100166.22
2023-09-17T07:14:17.911Z,100167.41
2023-09-17T07:15:49.804Z,100163.81
2023-09-17T07:17:22.349Z,100170.47
2023-09-17T07:18:54.355Z,100168.78
2023-09-17T07:20:26.193Z,100170.81
2023-09-17T07:21:58.034Z,100162.47
2023-09-17T07:23:31.212Z,100166.19
2023-09-17T07:25:05.610Z,100164.28
2023-09-17T07:26:37.494Z,100165.13
2023-09-17T07:28:09.859Z,100159.47
2023-09-17T07:29:41.722Z,100164.03
2023-09-17T07:31:15.385Z,100166.72
2023-09-17T07:32:47.508Z,100162.13
2023-09-17T07:34:19.440Z,100173.00
2023-09-17T07:35:51.787Z,100167.16
2023-09-17T07:37:33.441Z,100159.94
2023-09-17T07:39:12.603Z,100166.91
2023-09-17T07:40:44.590Z,100160.34
2023-09-17T07:42:16.603Z,100162.19
2023-09-17T07:43:48.556Z,100164.00
2023-09-17T07:45:20.514Z,100161.22
2023-09-17T07:46:52.486Z,100162.00
2023-09-17T07:48:27.055Z,100154.78
2023-09-17T07:49:59.164Z,100157.47
2023-09-17T07:51:31.105Z,100161.16
2023-09-17T07:53:03.681Z,100156.47
2023-09-17T07:54:40.653Z,100151.97
2023-09-17T07:56:12.573Z,100153.75
2023-09-17T07:57:44.464Z,100157.28
2023-09-17T07:59:16.334Z,100151.72
2023-09-17T08:00:48.271Z,100157.13
2023-09-17T08:02:20.531Z,100160.81
2023-09-17T08:03:52.817Z,100160.72
2023-09-17T08:05:26.537Z,100159.78
2023-09-17T08:06:58.501Z,100166.19
2023-09-17T08:08:30.567Z,100162.69
2023-09-17T08:10:02.586Z,100159.03
2023-09-17T08:11:34.518Z,100165.44
2023-09-17T08:13:06.621Z,100157.31
2023-09-17T08:14:38.615Z,100163.56
2023-09-17T08:16:10.579Z,100163.81
2023-09-17T08:17:44.902Z,100167.28
2023-09-17T08:19:16.865Z,100163.59
2023-09-17T08:20:48.823Z,100166.22
2023-09-17T08:22:22.811Z,100164.00
2023-09-17T08:24:15.947Z,100159.91
2023-09-17T08:26:12.116Z,100153.91
2023-09-17T08:28:08.116Z,100152.34
2023-09-17T08:30:01.246Z,100163.44
2023-09-17T08:31:53.184Z,100160.19
2023-09-17T08:33:46.633Z,100157.75
2023-09-17T08:35:22.686Z,100158.03
2023-09-17T08:36:55.054Z,100157.69
2023-09-17T08:38:27.833Z,100157.34
2023-09-17T08:39:59.751Z,100166.91
2023-09-17T08:41:31.872Z,100160.22
2023-09-17T08:43:04.555Z,100165.13
2023-09-17T08:44:37.349Z,100169.19
2023-09-17T08:46:09.381Z,100165.66
2023-09-17T08:47:41.357Z,100167.22
2023-09-17T08:49:13.344Z,100164.72
2023-09-17T08:50:53.142Z,100163.91
2023-09-17T08:52:27.326Z,100157.41
2023-09-17T08:54:15.069Z,100157.03
2023-09-17T08:55:56.567Z,100151.34
2023-09-17T08:57:31.957Z,100152.81
2023-09-17T08:59:23.852Z,100150.69
2023-09-17T09:00:59.678Z,100149.41
2023-09-17T09:02:33.987Z,100151.47
2023-09-17T09:04:07.195Z,100146.91
2023-09-17T09:05:39.558Z,100152.31
2023-09-17T09:07:11.767Z,100147.25
2023-09-17T09:08:44.370Z,100144.91
2023-09-17T09:10:17.061Z,100151.09
2023-09-17T09:11:49.940Z,100148.66
2023-09-17T09:13:22.898Z,100146.50
2023-09-17T09:14:55.686Z,100149.78
2023-09-17T09:16:28.515Z,100144.75
2023-09-17T09:18:00.599Z,100147.38
2023-09-17T09:19:32.567Z,100136.38
2023-09-17T09:21:04.511Z,100139.22
2023-09-17T09:22:36.673Z,100138.41
2023-09-17T09:24:09.580Z,100133.09
2023-09-17T09:25:41.528Z,100134.63
2023-09-17T09:27:13.423Z,100138.72
2023-09-17T09:28:46.093Z,100133.25
2023-09-17T09:30:18.143Z,100136.69
2023-09-17T09:31:52.839Z,100134.19
2023-09-17T09:33:25.584Z,100135.66
2023-09-17T09:34:59.252Z,100133.19
2023-09-17T09:36:35.380Z,100130.66
2023-09-17T09:38:07.448Z,100133.75
2023-09-17T09:39:43.088Z,100133.13
2023-09-17T09:41:15.036Z,100129.75
2023-09-17T09:42:48.304Z,100123.59
2023-09-17T09:44:20.289Z,100120.19
2023-09-17T09:45:52.338Z,100126.47
2023-09-17T09:47:24.599Z,100124.13
2023-09-17T09:49:01.443Z,100128.22
2023-09-17T09:50:33.403Z,100123.13
2023-09-17T09:52:05.740Z,100126.56
2023-09-17T09:53:37.598Z,100125.31
2023-09-17T09:55:09.577Z,100131.31
2023-09-17T09:56:41.642Z,100127.25
2023-09-17T09:58:14.644Z,100131.28
2023-09-17T09:59:48.321Z,100133.06
2023-09-17T10:01:20.573Z,100130.69
2023-09-17T10:02:52.608Z,100123.25
2023-09-17T10:04:24.665Z,100128.03
2023-09-17T10:06:05.758Z,100132.56
2023-09-17T10:07:37.759Z,100115.38
2023-09-17T10:09:12.184Z,100114.59
2023-09-17T10:10:44.624Z,100116.59
2023-09-17T10:12:17.402Z,100114.41
2023-09-17T10:13:53.049Z,100123.91
2023-09-17T10:15:25.232Z,100120.63
2023-09-17T10:16:57.267Z,100120.66
2023-09-17T10:18:31.379Z,100113.44
2023-09-17T10:20:07.813Z,100120.72
2023-09-17T10:21:40.968Z,100116.28
2023-09-17T10:23:14.523Z,100112.72
2023-09-17T10:24:47.005Z,100119.97
2023-09-17T10:26:22.359Z,100114.38
2023-09-17T10:27:55.850Z,100119.97
2023-09-17T10:29:29.292Z,100111.06
2023-09-17T10:31:02.643Z,100120.84
2023-09-17T10:32:36.613Z,100116.94
2023-09-17T10:34:11.168Z,100119.72
2023-09-17T10:35:45.073Z,100109.09
2023-09-17T10:37:19.130Z,100108.53
2023-09-17T10:38:53.574Z,100115.22
2023-09-17T10:40:26.991Z,100109.94
2023-09-17T10:42:02.412Z,100111.03
2023-09-17T10:43:36.618Z,100110.19
2023-09-17T10:45:10.665Z,100106.84
2023-09-17T10:46:46.692Z,100102.63
2023-09-17T10:48:21.988Z,100109.09
2023-09-17T10:49:54.626Z,100106.31
2023-09-17T10:51:29.689Z,100106.88
2023-09-17T10:53:02.030Z,100106.31
2023-09-17T10:54:34.000Z,100104.88
2023-09-17T10:56:10.659Z,100106.84
2023-09-17T10:57:46.156Z,100101.25
2023-09-17T10:59:19.475Z,100105.69
2023-09-17T11:00:52.875Z,100102.91
2023-09-17T11:02:29.272Z,100094.81
2023-09-17T11:04:11.583Z,100094.00
2023-09-17T11:05:44.605Z,100098.44
2023-09-17T11:07:17.800Z,100101.81
2023-09-17T11:08:50.459Z,100102.94
2023-09-17T11:10:31.862Z,100102.94
2023-09-17T11:12:05.714Z,100100.69
2023-09-17T11:13:38.000Z,100099.56
2023-09-17T11:15:11.512Z,100101.75
2023-09-17T11:16:43.726Z,100095.28
2023-09-17T11:18:16.119Z,100102.53
2023-09-17T11:19:48.066Z,100089.09
2023-09-17T11:21:20.370Z,100093.22
2023-09-17T11:22:52.346Z,100091.53
2023-09-17T11:24:24.246Z,100089.00
2023-09-17T11:25:56.593Z,100089.25
2023-09-17T11:27:45.478Z,100090.34
2023-09-17T11:29:17.440Z,100089.19
2023-09-17T11:30:57.578Z,100092.28
2023-09-17T11:32:30.327Z,100092.53
2023-09-17T11:34:06.364Z,100093.34
2023-09-17T11:35:38.292Z,100098.88
2023-09-17T11:37:10.294Z,100097.72
2023-09-17T11:38:47.802Z,100096.91
2023-09-17T11:40:20.648Z,100105.28
2023-09-17T11:41:55.405Z,100096.41
2023-09-17T11:43:27.380Z,100093.97
2023-09-17T11:45:00.368Z,100097.09
2023-09-17T11:46:32.607Z,100091.31
2023-09-17T11:48:06.342Z,100095.25
2023-09-17T11:49:38.736Z,100088.03
2023-09-17T11:51:33.384Z,100091.13
2023-09-17T11:53:08.562Z,100095.06
2023-09-17T11:54:52.382Z,100096.78
2023-09-17T11:56:25.916Z,100099.28
2023-09-17T11:58:15.259Z,100101.81
2023-09-17T11:59:47.181Z,100090.06
2023-09-17T12:01:19.144Z,100096.22
2023-09-17T12:02:52.356Z,100099.56
2023-09-17T12:04:30.447Z,100091.22
2023-09-17T12:06:02.520Z,100095.41
2023-09-17T12:07:45.809Z,100094.00
2023-09-17T12:09:45.141Z,100090.13
2023-09-17T12:11:23.391Z,100092.34
2023-09-17T12:12:56.193Z,100089.56
2023-09-17T12:14:28.519Z,100092.63
2023-09-17T12:16:01.940Z,100089.00
2023-09-17T12:17:43.414Z,100088.16
2023-09-17T12:19:21.688Z,100083.41
2023-09-17T12:21:00.854Z,100084.53
2023-09-17T12:22:33.461Z,100077.81
2023-09-17T12:24:09.824Z,100082.56
2023-09-17T12:25:46.109Z,100082.88
2023-09-17T12:27:36.520Z,100079.78
2023-09-17T12:29:10.591Z,100077.56
2023-09-17T12:30:42.640Z,100077.28
2023-09-17T12:32:18.255Z,100073.09
2023-09-17T12:33:50.588Z,100085.34
2023-09-17T12:35:24.408Z,100078.41
2023-09-17T12:36:56.460Z,100080.34
2023-09-17T12:38:28.314Z,100075.88
2023-09-17T12:40:00.605Z,100073.88
2023-09-17T12:41:40.514Z,100074.97
2023-09-17T12:43:13.532Z,100071.88
2023-09-17T12:44:45.424Z,100070.47
2023-09-17T12:46:17.712Z,100072.13
2023-09-17T12:47:49.697Z,100062.34
2023-09-17T12:49:23.260Z,100062.59
2023-09-17T12:50:56.526Z,100051.16
2023-09-17T12:52:28.534Z,100051.97
2023-09-17T12:54:00.780Z,100052.78
2023-09-17T12:55:32.877Z,100055.53
2023-09-17T12:57:05.680Z,100051.34
2023-09-17T12:58:37.929Z,100055.25
2023-09-17T13:00:10.675Z,100049.69
2023-09-17T13:01:53.086Z,100051.31
2023-09-17T13:03:25.250Z,100046.84
2023-09-17T13:04:57.747Z,100041.84
2023-09-17T13:06:32.028Z,100041.25
2023-09-17T13:08:07.701Z,100039.34
2023-09-17T13:09:39.712Z,100039.59
2023-09-17T13:11:11.685Z,100035.97
2023-09-17T13:12:46.578Z,100037.91
2023-09-17T13:14:18.677Z,100035.69
2023-09-17T13:15:50.608Z,100042.66
2023-09-17T13:17:24.107Z,100026.53
2023-09-17T13:18:56.149Z,100030.44
2023-09-17T13:20:28.737Z,100025.72
2023-09-17T13:22:00.946Z,100024.59
2023-09-17T13:23:33.770Z,100026.31
2023-09-17T13:25:07.855Z,100024.38
2023-09-17T13:26:39.831Z,100021.31
2023-09-17T13:28:14.100Z,100024.13
2023-09-17T13:29:56.502Z,100009.88
2023-09-17T13:31:28.416Z,100011.03
2023-09-17T13:33:01.190Z,100019.72
2023-09-17T13:34:33.109Z,100011.34
2023-09-17T13:36:10.571Z,100013.56
2023-09-17T13:37:42.940Z,100008.56
2023-09-17T13:39:14.936Z,100015.81
2023-09-17T13:40:49.548Z,100006.06
2023-09-17T13:42:22.461Z,99999.94
2023-09-17T13:43:54.357Z,100004.69
2023-09-17T13:45:26.228Z,100004.13
2023-09-17T13:46:58.145Z,100000.22
2023-09-17T13:48:31.190Z,99996.09
2023-09-17T13:50:03.351Z,99996.34
2023-09-17T13:51:35.227Z,99999.41
2023-09-17T13:53:07.210Z,99993.00
2023-09-17T13:54:40.478Z,99995.75
2023-09-17T13:56:12.668Z,99998.56
2023-09-17T13:57:44.551Z,99997.69
2023-09-17T13:59:16.499Z,99994.03
2023-09-17T14:00:48.682Z,99987.88
2023-09-17T14:02:20.539Z,99989.25
2023-09-17T14:03:52.828Z,99988.13
2023-09-17T14:05:24.835Z,99985.84
2023-09-17T14:06:56.845Z,99981.91
2023-09-17T14:08:31.063Z,99987.19
2023-09-17T14:10:03.006Z,99980.97
2023-09-17T14:11:37.222Z,99986.81
2023-09-17T14:13:09.374Z,99983.44
2023-09-17T14:14:41.261Z,99992.88
2023-09-17T14:16:13.124Z,99990.31
2023-09-17T14:17:45.096Z,100000.03
2023-09-17T14:19:20.013Z,99989.06
2023-09-17T14:20:52.158Z,99997.72
2023-09-17T14:22:24.007Z,99990.66
2023-09-17T14:23:55.860Z,99992.81
2023-09-17T14:25:27.734Z,99992.78
2023-09-17T14:26:59.790Z,99989.34
2023-09-17T14:28:31.624Z,99990.44
2023-09-17T14:30:05.626Z,99988.72
2023-09-17T14:31:40.232Z,99990.38
2023-09-17T14:33:16.620Z,99987.53
2023-09-17T14:34:48.571Z,99983.50
2023-09-17T14:36:20.429Z,99978.69
2023-09-17T14:37:52.418Z,99994.31
2023-09-17T14:39:24.280Z,99980.56
2023-09-17T14:40:56.504Z,99979.69
2023-09-17T14:42:28.413Z,99977.63
2023-09-17T14:44:00.663Z,99983.78
2023-09-17T14:45:33.358Z,99978.13
2023-09-17T14:47:05.388Z,99971.09
2023-09-17T14:48:37.455Z,99971.41
2023-09-17T14:50:10.741Z,99969.19
2023-09-17T14:51:42.660Z,99975.44
2023-09-17T14:53:14.608Z,99966.63
2023-09-17T14:54:47.650Z,99968.75
2023-09-17T14:56:19.556Z,99968.31
2023-09-17T14:57:51.434Z,99966.28
2023-09-17T14:59:24.525Z,99975.34
2023-09-17T15:00:57.113Z,99972.94
2023-09-17T15:02:29.800Z,99973.94
2023-09-17T15:04:02.331Z,99969.84
2023-09-17T15:05:34.337Z,99971.63
2023-09-17T15:07:06.197Z,99968.06
2023-09-17T15:08:38.066Z,99959.47
2023-09-17T15:10:10.979Z,99968.44
2023-09-17T15:11:42.824Z,99961.19
2023-09-17T15:13:14.725Z,99959.53
2023-09-17T15:14:46.674Z,99965.06
2023-09-17T15:16:18.585Z,99968.63
2023-09-17T15:17:50.538Z,99963.59
2023-09-17T15:19:22.509Z,99962.41
2023-09-17T15:20:54.672Z,99970.09
2023-09-17T15:22:26.694Z,99960.53
2023-09-17T15:23:58.640Z,99962.41
2023-09-17T15:25:30.591Z,99957.56
2023-09-17T15:27:02.534Z,99952.75
2023-09-17T15:28:34.379Z,99965.22
2023-09-17T15:30:07.689Z,99958.72
2023-09-17T15:31:41.326Z,99954.16
2023-09-17T15:33:13.341Z,99966.03
2023-09-17T15:34:45.836Z,99959.84
2023-09-17T15:36:18.136Z,99961.66
2023-09-17T15:37:50.083Z,99962.38
2023-09-17T15:39:22.006Z,99964.47
2023-09-17T15:40:56.364Z,99972.44
2023-09-17T15:42:28.277Z,99965.09
2023-09-17T15:44:00.255Z,99966.13
2023-09-17T15:45:32.527Z,99966.56
2023-09-17T15:47:04.670Z,99970.38
2023-09-17T15:48:37.858Z,99968.91
2023-09-17T15:50:09.885Z,99968.22
2023-09-17T15:51:41.757Z,99973.97
2023-09-17T15:53:13.665Z,99966.13
2023-09-17T15:54:45.535Z,99967.97
2023-09-17T15:56:17.454Z,99978.66
2023-09-17T15:57:50.501Z,99961.59
2023-09-17T15:59:23.066Z,99964.81
2023-09-17T16:00:54.959Z,99967.19
2023-09-17T16:02:26.940Z,99972.03
2023-09-17T16:03:59.040Z,99966.34
2023-09-17T16:05:31.189Z,99974.47
2023-09-17T16:07:03.301Z,99976.59
2023-09-17T16:08:35.209Z,99976.16
2023-09-17T16:10:07.692Z,99977.41
2023-09-17T16:11:39.581Z,99980.34
2023-09-17T16:13:11.492Z,99969.66
2023-09-17T16:14:43.467Z,99969.25
2023-09-17T16:16:15.360Z,99969.94
2023-09-17T16:17:47.334Z,99975.28
2023-09-17T16:19:21.065Z,99969.91
2023-09-17T16:20:52.978Z,99973.94
2023-09-17T16:22:25.113Z,99971.31
2023-09-17T16:23:56.989Z,99973.38
2023-09-17T16:25:28.846Z,99968.22
2023-09-17T16:27:00.753Z,99970.25
2023-09-17T16:28:32.690Z,99971.25
2023-09-17T16:30:06.505Z,99974.38
2023-09-17T16:31:41.014Z,99969.81
2023-09-17T16:33:13.095Z,99964.41
2023-09-17T16:34:45.119Z,99972.84
2023-09-17T16:36:17.005Z,99971.31
2023-09-17T16:37:48.994Z,99980.34
2023-09-17T16:39:20.943Z,99975.13
2023-09-17T16:40:53.045Z,99979.94
2023-09-17T16:42:25.133Z,99975.63
2023-09-17T16:43:57.023Z,99980.41
2023-09-17T16:45:28.910Z,99978.59
2023-09-17T16:47:00.843Z,99991.97
2023-09-17T16:48:32.753Z,99985.72
2023-09-17T16:50:05.153Z,99984.13
2023-09-17T16:51:46.515Z,99988.50
2023-09-17T16:53:19.578Z,99986.09
2023-09-17T16:54:51.575Z,99984.75
2023-09-17T16:56:23.522Z,99985.34
2023-09-17T16:57:55.846Z,99975.06
2023-09-17T16:59:27.743Z,99984.75
2023-09-17T17:00:59.723Z,99987.19
2023-09-17T17:02:31.733Z,99992.22
2023-09-17T17:04:03.969Z,99998.28
2023-09-17T17:05:36.300Z,99993.31
2023-09-17T17:07:08.216Z,99989.75
2023-09-17T17:08:40.096Z,99994.16
2023-09-17T17:10:12.405Z,99987.84
2023-09-17T17:11:44.302Z,99980.69
2023-09-17T17:13:16.333Z,99983.75
2023-09-17T17:14:49.138Z,99983.00
2023-09-17T17:16:21.013Z,99978.84
2023-09-17T17:17:52.975Z,99975.31
2023-09-17T17:19:24.865Z,99970.91
2023-09-17T17:20:56.776Z,99973.75
2023-09-17T17:22:42.421Z,99968.72
2023-09-17T17:24:14.325Z,99959.00
2023-09-17T17:25:47.436Z,99959.28
2023-09-17T17:27:19.547Z,99957.81
2023-09-17T17:28:51.435Z,99959.56
2023-09-17T17:30:23.285Z,99960.47
2023-09-17T17:31:55.206Z,99967.47
2023-09-17T17:33:28.341Z,99957.34
2023-09-17T17:35:00.331Z,99963.31
2023-09-17T17:36:32.763Z,99962.91
2023-09-17T17:38:04.800Z,99962.50
2023-09-17T17:39:36.989Z,99962.31
2023-09-17T17:41:09.766Z,99964.44
2023-09-17T17:42:41.716Z,99961.28
2023-09-17T17:44:13.755Z,99968.06
2023-09-17T17:45:46.175Z,99970.66
2023-09-17T17:47:18.133Z,99967.28
2023-09-17T17:48:50.796Z,99973.22
2023-09-17T17:50:23.174Z,99971.97
2023-09-17T17:51:55.500Z,99972.41
2023-09-17T17:53:27.419Z,99971.19